createdAt,value
2023-02-23T00:00:14.908Z,8.88
2023-02-23T00:05:17.464Z,16.17
2023-02-23T00:10:18.978Z,9.55
2023-02-23T00:15:20.561Z,15.60
2023-02-23T00:20:23.832Z,16.05
2023-02-23T00:25:25.914Z,13.82
2023-02-23T00:30:27.340Z,19.60
2023-02-23T00:35:28.909Z,13.50
2023-02-23T00:40:30.407Z,11.98
2023-02-23T00:45:31.900Z,13.00
2023-02-23T00:50:33.454Z,7.88
2023-02-23T00:55:34.964Z,8.32
2023-02-23T01:00:36.540Z,12.50
2023-02-23T01:05:37.951Z,14.65
2023-02-23T01:10:41.350Z,14.98
2023-02-23T01:15:44.211Z,15.50
2023-02-23T01:20:47.059Z,12.00
2023-02-23T01:25:48.618Z,12.23
2023-02-23T01:30:50.780Z,14.65
2023-02-23T01:35:59.445Z,11.60
2023-02-23T01:41:01.039Z,10.23
2023-02-23T01:46:03.361Z,16.38
2023-02-23T01:51:11.538Z,14.65
2023-02-23T01:56:21.121Z,12.85
2023-02-23T02:01:23.251Z,13.80
2023-02-23T02:06:26.504Z,10.52
2023-02-23T02:11:28.005Z,11.88
2023-02-23T02:16:34.553Z,13.60
2023-02-23T02:21:47.238Z,10.23
2023-02-23T02:27:33.479Z,13.25
2023-02-23T02:32:55.957Z,13.48
2023-02-23T02:38:03.096Z,11.57
2023-02-23T02:43:36.823Z,16.75
2023-02-23T02:48:58.838Z,13.02
2023-02-23T02:54:10.530Z,16.33
2023-02-23T02:59:15.036Z,9.90
2023-02-23T03:04:23.368Z,17.88
2023-02-23T03:09:49.496Z,13.63
2023-02-23T03:19:58.924Z,17.42
2023-02-23T03:25:07.875Z,12.25
2023-02-23T03:30:15.122Z,11.93
2023-02-23T03:35:30.529Z,17.85
2023-02-23T03:40:39.771Z,10.95
2023-02-23T03:45:45.197Z,11.98
2023-02-23T03:50:52.396Z,12.93
2023-02-23T03:55:57.780Z,13.40
2023-02-23T04:01:02.970Z,14.32
2023-02-23T04:06:08.664Z,12.68
2023-02-23T04:16:33.613Z,9.10
2023-02-23T04:21:35.208Z,14.95
2023-02-23T04:26:36.700Z,13.35
2023-02-23T04:31:38.721Z,15.98
2023-02-23T04:36:40.738Z,19.17
2023-02-23T04:41:42.222Z,18.27
2023-02-23T04:46:43.767Z,19.15
2023-02-23T04:51:45.239Z,18.20
2023-02-23T04:56:46.712Z,13.70
2023-02-23T05:01:48.707Z,13.63
2023-02-23T05:06:50.600Z,15.07
2023-02-23T05:11:52.221Z,16.00
2023-02-23T05:16:54.826Z,13.02
2023-02-23T05:21:56.529Z,17.67
2023-02-23T05:26:58.133Z,14.13
2023-02-23T05:31:59.911Z,14.77
2023-02-23T05:37:01.534Z,14.00
2023-02-23T05:42:03.125Z,15.18
2023-02-23T05:47:04.877Z,12.82
2023-02-23T05:52:06.345Z,15.25
2023-02-23T05:57:07.787Z,13.05
2023-02-23T06:02:09.246Z,14.90
2023-02-23T06:07:11.010Z,11.20
2023-02-23T06:12:12.485Z,12.82
2023-02-23T06:17:13.939Z,9.43
2023-02-23T06:22:17.661Z,12.45
2023-02-23T06:27:19.214Z,14.05
2023-02-23T06:32:20.822Z,16.05
2023-02-23T06:37:22.424Z,16.02
2023-02-23T06:42:24.664Z,14.65
2023-02-23T06:47:26.174Z,15.25
2023-02-23T06:52:27.669Z,13.20
2023-02-23T06:57:29.119Z,14.10
2023-02-23T07:02:30.811Z,13.35
2023-02-23T07:07:32.441Z,17.67
2023-02-23T07:12:33.922Z,20.98
2023-02-23T07:17:38.138Z,18.75
2023-02-23T07:22:40.147Z,13.50
2023-02-23T07:27:41.624Z,15.30
2023-02-23T07:32:43.143Z,17.05
2023-02-23T07:37:44.911Z,16.52
2023-02-23T07:42:46.391Z,19.05
2023-02-23T07:47:48.061Z,15.85
2023-02-23T07:52:50.820Z,16.83
2023-02-23T07:57:52.409Z,16.75
2023-02-23T08:02:54.171Z,14.63
2023-02-23T08:08:00.305Z,16.67
2023-02-23T08:13:02.044Z,14.25
2023-02-23T08:18:05.944Z,19.92
2023-02-23T08:23:07.793Z,16.45
2023-02-23T08:28:09.369Z,19.15
2023-02-23T08:33:10.846Z,19.98
2023-02-23T08:38:12.656Z,25.50
2023-02-23T08:43:14.302Z,18.70
2023-02-23T08:48:15.742Z,18.85
2023-02-23T08:53:17.497Z,17.10
2023-02-23T08:58:19.044Z,23.85
2023-02-23T09:03:21.364Z,16.30
2023-02-23T09:08:23.462Z,17.02
2023-02-23T09:13:27.692Z,21.05
2023-02-23T09:18:30.009Z,20.20
2023-02-23T09:23:31.505Z,24.58
2023-02-23T09:28:33.213Z,21.38
2023-02-23T09:33:35.407Z,22.40
2023-02-23T09:38:37.052Z,28.35
2023-02-23T09:44:07.547Z,24.23
2023-02-23T09:49:15.642Z,21.35
2023-02-23T09:54:18.721Z,21.05
2023-02-23T09:59:22.420Z,20.98
2023-02-23T10:04:28.433Z,21.23
2023-02-23T10:10:00.738Z,21.75
2023-02-23T10:15:11.301Z,25.30
2023-02-23T10:21:03.250Z,21.85
2023-02-23T10:26:06.710Z,23.83
2023-02-23T10:31:27.974Z,25.42
2023-02-23T10:36:39.502Z,19.33
2023-02-23T10:41:42.281Z,22.25
2023-02-23T10:46:45.747Z,18.20
2023-02-23T10:51:47.453Z,21.67
2023-02-23T10:56:49.188Z,19.15
2023-02-23T11:02:01.439Z,19.42
2023-02-23T11:07:08.219Z,24.48
2023-02-23T11:12:22.414Z,21.35
2023-02-23T11:17:34.849Z,22.40
2023-02-23T11:22:40.901Z,23.90
2023-02-23T11:27:48.199Z,19.00
2023-02-23T11:32:56.636Z,19.92
2023-02-23T11:38:16.060Z,19.17
2023-02-23T11:43:18.027Z,22.30
2023-02-23T11:48:34.025Z,20.63
2023-02-23T11:53:38.915Z,20.48
2023-02-23T11:58:47.185Z,22.80
2023-02-23T12:03:57.594Z,20.83
2023-02-23T12:09:04.939Z,25.27
2023-02-23T12:14:27.849Z,24.25
2023-02-23T12:19:44.021Z,19.02
2023-02-23T12:24:54.067Z,22.65
2023-02-23T12:30:12.068Z,26.45
2023-02-23T12:35:21.650Z,22.15
2023-02-23T12:40:27.489Z,16.23
2023-02-23T12:45:37.211Z,14.88
2023-02-23T12:50:42.877Z,19.30
2023-02-23T13:01:28.037Z,14.80
2023-02-23T13:06:47.298Z,17.15
2023-02-23T13:12:14.889Z,16.48
2023-02-23T13:17:37.007Z,10.85
2023-02-23T13:22:50.594Z,11.60
2023-02-23T13:27:58.584Z,14.15
2023-02-23T13:33:09.358Z,16.45
2023-02-23T13:38:29.422Z,13.60
2023-02-23T13:43:37.537Z,19.80
2023-02-23T13:48:58.064Z,10.75
2023-02-23T13:54:14.433Z,13.70
2023-02-23T13:59:22.326Z,11.80
2023-02-23T14:04:36.697Z,18.45
2023-02-23T14:09:47.640Z,15.52
2023-02-23T14:14:49.468Z,11.00
2023-02-23T14:20:17.876Z,14.18
2023-02-23T14:25:35.245Z,15.25
2023-02-23T14:30:48.144Z,15.20
2023-02-23T14:35:49.771Z,23.52
2023-02-23T14:40:54.047Z,16.38
2023-02-23T14:45:56.083Z,11.10
2023-02-23T14:51:34.866Z,14.38
2023-02-23T14:56:46.365Z,15.73
2023-02-23T15:01:49.869Z,12.68
2023-02-23T15:07:00.835Z,18.95
2023-02-23T15:12:12.107Z,14.50
2023-02-23T15:17:18.039Z,17.92
2023-02-23T15:22:27.729Z,17.25
2023-02-23T15:27:41.186Z,15.30
2023-02-23T15:32:42.895Z,14.88
2023-02-23T15:37:55.411Z,15.40
2023-02-23T15:43:11.446Z,14.52
2023-02-23T15:48:17.890Z,10.77
2023-02-23T15:53:39.863Z,10.43
2023-02-23T15:58:56.498Z,10.88
2023-02-23T16:04:07.014Z,13.35
2023-02-23T16:09:15.407Z,9.38
2023-02-23T16:14:19.177Z,11.68
2023-02-23T16:19:23.139Z,11.48
2023-02-23T16:24:28.199Z,11.85
2023-02-23T16:29:37.175Z,18.30
2023-02-23T16:34:50.440Z,10.40
2023-02-23T16:39:52.637Z,11.52
2023-02-23T16:44:54.566Z,16.98
2023-02-23T16:49:56.137Z,10.50
2023-02-23T16:54:57.764Z,13.13
2023-02-23T16:59:59.286Z,13.60
2023-02-23T17:05:01.117Z,17.70
2023-02-23T17:10:02.579Z,16.85
2023-02-23T17:15:04.380Z,18.42
2023-02-23T17:20:06.712Z,10.90
2023-02-23T17:25:08.600Z,13.00
2023-02-23T17:30:11.227Z,8.95
2023-02-23T17:35:13.086Z,13.65
2023-02-23T17:40:19.216Z,15.88
2023-02-23T17:45:21.087Z,14.85
2023-02-23T17:50:22.931Z,16.13
2023-02-23T17:55:25.132Z,19.58
2023-02-23T18:00:26.730Z,20.25
2023-02-23T18:05:28.480Z,29.55
2023-02-23T18:10:30.108Z,27.38
2023-02-23T18:15:32.655Z,26.17
2023-02-23T18:20:34.306Z,25.00
2023-02-23T18:25:36.274Z,26.48
2023-02-23T18:30:37.895Z,28.95
2023-02-23T18:35:43.826Z,32.20
2023-02-23T18:40:45.379Z,28.70
2023-02-23T18:45:46.839Z,27.08
2023-02-23T18:50:48.305Z,36.83
2023-02-23T18:55:49.777Z,37.88
2023-02-23T19:00:51.375Z,36.92
2023-02-23T19:05:52.862Z,37.53
2023-02-23T19:10:54.458Z,35.50
2023-02-23T19:15:55.942Z,30.73
2023-02-23T19:20:57.354Z,32.25
2023-02-23T19:25:59.380Z,25.58
2023-02-23T19:31:06.484Z,32.95
2023-02-23T19:36:11.860Z,32.80
2023-02-23T19:41:16.068Z,36.45
2023-02-23T19:46:17.669Z,32.97
2023-02-23T19:51:20.370Z,33.67
2023-02-23T19:56:23.100Z,33.83
2023-02-23T20:01:25.844Z,34.15
2023-02-23T20:06:30.371Z,24.90
2023-02-23T20:11:32.421Z,28.55
2023-02-23T20:16:35.383Z,33.35
2023-02-23T20:21:37.289Z,28.13
2023-02-23T20:26:38.909Z,31.27
2023-02-23T20:31:43.932Z,29.20
2023-02-23T20:36:46.002Z,36.35
2023-02-23T20:41:47.628Z,25.02
2023-02-23T20:46:49.342Z,27.77
2023-02-23T20:51:51.373Z,30.70
2023-02-23T20:56:52.989Z,25.67
2023-02-23T21:01:55.019Z,32.42
2023-02-23T21:06:57.727Z,30.80
2023-02-23T21:11:59.204Z,29.67
2023-02-23T21:17:00.697Z,29.50
2023-02-23T21:22:03.467Z,25.33
2023-02-23T21:27:04.975Z,29.08
2023-02-23T21:32:08.111Z,24.27
2023-02-23T21:37:09.733Z,22.65
2023-02-23T21:42:11.380Z,24.95
2023-02-23T21:47:13.118Z,19.35
2023-02-23T21:52:16.776Z,19.70
2023-02-23T21:57:18.841Z,18.83
2023-02-23T22:02:20.562Z,16.38
2023-02-23T22:07:22.102Z,15.88
2023-02-23T22:12:23.560Z,20.88
2023-02-23T22:17:25.617Z,15.57
2023-02-23T22:22:27.249Z,18.70
2023-02-23T22:27:28.747Z,17.45
2023-02-23T22:32:30.541Z,20.52
2023-02-23T22:37:32.577Z,16.42
2023-02-23T22:42:34.129Z,19.88
2023-02-23T22:47:35.773Z,18.70
2023-02-23T22:52:37.479Z,20.42
2023-02-23T22:57:39.644Z,23.60
2023-02-23T23:02:41.124Z,27.42
2023-02-23T23:07:42.900Z,24.77
2023-02-23T23:12:44.882Z,21.45
2023-02-23T23:17:46.802Z,26.88
2023-02-23T23:22:48.476Z,26.38
2023-02-23T23:27:51.180Z,28.83
2023-02-23T23:32:52.677Z,21.02
2023-02-23T23:37:54.233Z,25.35
2023-02-23T23:42:55.848Z,28.08
2023-02-23T23:47:58.457Z,30.02
2023-02-23T23:53:00.051Z,31.60
2023-02-23T23:58:01.599Z,25.50
